Time;durP1;ratioP1;P1;durP2;ratioP2;P2;SDS_P1;SDS_P2;PMS_P1;PMS_P2;Temp;Humidity;BMP_temperature;BMP_pressure;BME280_temperature;BME280_humidity;BME280_pressure;Samples;Min_cycle;Max_cycle;Signal;HPM_P1;HPM_P2
2022/10/23 00:01:53;;;;;;;27.20;18.65;;;;;;;10.10;93.95;100370.20;2137332;83;21584;-76
2022/10/23 00:04:54;;;;;;;27.50;18.85;;;;;;;10.06;93.89;100378.97;2130388;83;21037;-76
2022/10/23 00:07:58;;;;;;;26.00;18.45;;;;;;;10.00;93.87;100383.58;2126900;83;21045;-76
2022/10/23 00:11:00;;;;;;;21.10;16.52;;;;;;;9.98;93.91;100383.39;2103183;83;21092;-76
2022/10/23 00:14:04;;;;;;;25.30;17.20;;;;;;;9.92;93.69;100387.50;2129409;83;21061;-77
2022/10/23 00:17:05;;;;;;;24.40;17.25;;;;;;;9.88;93.75;100392.29;2135895;83;21041;-76
2022/10/23 00:20:08;;;;;;;27.37;17.23;;;;;;;9.84;93.71;100393.57;2127165;83;21030;-76
2022/10/23 00:23:10;;;;;;;22.32;17.65;;;;;;;9.79;93.85;100397.17;2129398;83;21093;-76
2022/10/23 00:26:16;;;;;;;29.57;17.90;;;;;;;9.75;94.01;100395.83;2132353;83;21084;-78
2022/10/23 00:29:14;;;;;;;43.05;15.80;;;;;;;9.71;94.08;100391.81;2127746;83;21481;-76
2022/10/23 00:32:15;;;;;;;27.10;19.23;;;;;;;9.67;94.14;100387.82;2139168;83;21077;-80
2022/10/23 00:35:17;;;;;;;26.35;16.52;;;;;;;9.62;93.96;100384.30;2139807;83;21531;-76
2022/10/23 00:38:18;;;;;;;185.67;12.70;;;;;;;9.59;94.12;100383.78;2098348;83;21064;-76
2022/10/23 00:41:31;;;;;;;33.20;16.45;;;;;;;9.55;93.94;100384.59;2132320;83;21656;-76
2022/10/23 00:44:38;;;;;;;31.15;19.55;;;;;;;9.50;93.94;100390.83;2134469;83;21037;-76
2022/10/23 00:47:39;;;;;;;28.10;18.30;;;;;;;9.47;94.32;100381.05;2104262;83;21632;-76
2022/10/23 00:50:42;;;;;;;21.90;16.60;;;;;;;9.46;94.54;100380.69;2133077;83;21048;-76
2022/10/23 00:53:44;;;;;;;40.63;23.32;;;;;;;9.42;94.46;100378.34;2131032;83;21092;-76
2022/10/23 00:56:46;;;;;;;43.10;23.67;;;;;;;9.30;94.47;100365.02;2127890;83;21147;-76
2022/10/23 00:59:47;;;;;;;35.92;21.23;;;;;;;9.38;94.53;100375.68;2141484;83;21068;-76
2022/10/23 01:02:51;;;;;;;76.40;17.27;;;;;;;9.36;94.40;100371.52;2133024;83;21686;-76
2022/10/23 01:05:58;;;;;;;35.43;16.35;;;;;;;9.32;94.49;100371.00;2120249;83;21010;-76
2022/10/23 01:09:13;;;;;;;24.25;15.58;;;;;;;9.27;94.27;100373.77;2132908;83;21030;-77
2022/10/23 01:12:48;;;;;;;34.05;21.40;;;;;;;9.23;94.26;100370.56;2083976;84;21053;-80
2022/10/23 01:16:29;;;;;;;35.23;21.33;;;;;;;9.21;94.54;100379.17;2106729;83;21679;-78
2022/10/23 01:20:02;;;;;;;23.17;16.60;;;;;;;8.98;94.43;100349.18;2133461;82;21164;-77
2022/10/23 01:23:29;;;;;;;23.95;16.70;;;;;;;9.09;94.16;100381.69;2132123;83;21468;-85
2022/10/23 01:26:48;;;;;;;20.45;15.13;;;;;;;9.01;94.12;100385.11;2110484;83;21006;-75
2022/10/23 01:30:15;;;;;;;24.35;16.37;;;;;;;8.95;94.12;100385.22;2127343;83;21048;-75
2022/10/23 01:33:28;;;;;;;27.48;17.82;;;;;;;8.84;94.00;100400.44;2135547;83;21069;-75
2022/10/23 01:36:33;;;;;;;26.07;16.73;;;;;;;8.84;94.00;100400.44;2132008;83;21541;-76
2022/10/23 01:39:40;;;;;;;23.75;16.10;;;;;;;8.79;94.05;100406.70;2133181;83;21065;-85
2022/10/23 01:42:46;;;;;;;21.93;16.75;;;;;;;8.77;94.11;100406.00;2131197;83;21485;-76
2022/10/23 01:46:01;;;;;;;28.32;18.20;;;;;;;8.74;94.22;100393.90;2132614;83;21379;-78
2022/10/23 01:49:07;;;;;;;21.90;16.97;;;;;;;8.75;94.51;100395.55;2112689;83;21116;-76
2022/10/23 01:52:12;;;;;;;27.32;17.95;;;;;;;8.73;94.48;100403.66;2081624;83;21014;-75
2022/10/23 01:55:15;;;;;;;23.10;16.32;;;;;;;8.74;94.63;100405.31;2092931;84;21541;-75
2022/10/23 01:58:20;;;;;;;28.75;17.10;;;;;;;8.77;94.81;100402.03;2088425;84;21101;-76
2022/10/23 02:01:25;;;;;;;29.12;17.20;;;;;;;8.79;94.84;100407.52;2088700;84;20991;-80
2022/10/23 02:04:34;;;;;;;25.02;18.07;;;;;;;8.78;94.68;100402.36;2089287;84;21443;-75
2022/10/23 02:07:37;;;;;;;23.85;16.60;;;;;;;8.79;94.78;100408.84;2088014;84;21046;-80
2022/10/23 02:10:57;;;;;;;29.12;17.10;;;;;;;8.79;94.81;100410.66;2087896;84;21050;-75
2022/10/23 02:14:12;;;;;;;30.43;18.67;;;;;;;8.78;94.76;100407.66;2086897;84;21105;-76
2022/10/23 02:17:19;;;;;;;27.95;19.12;;;;;;;8.78;94.84;100413.77;2086341;84;20975;-76
2022/10/23 02:20:35;;;;;;;29.07;18.62;;;;;;;8.80;95.00;100413.64;2084174;84;21014;-76
2022/10/23 02:23:58;;;;;;;26.62;17.35;;;;;;;8.83;95.14;100414.17;2091929;84;21156;-76
2022/10/23 02:27:05;;;;;;;26.30;17.50;;;;;;;8.85;95.15;100411.39;2090354;84;21078;-78
2022/10/23 02:30:11;;;;;;;28.17;18.40;;;;;;;8.88;95.16;100409.77;2083730;84;21065;-79
2022/10/23 02:33:16;;;;;;;25.08;16.80;;;;;;;8.88;95.11;100415.06;2085908;84;21039;-76
2022/10/23 02:36:18;;;;;;;36.28;21.52;;;;;;;8.88;94.95;100412.41;2088883;84;21121;-77
2022/10/23 02:39:23;;;;;;;36.55;22.62;;;;;;;8.88;95.04;100410.59;2084523;84;21124;-77
2022/10/23 02:42:44;;;;;;;30.37;20.23;;;;;;;8.89;95.16;100408.28;2095343;84;21073;-76
2022/10/23 02:45:57;;;;;;;25.52;18.27;;;;;;;8.89;95.11;100408.28;2086175;84;21081;-78
2022/10/23 02:49:16;;;;;;;28.07;16.90;;;;;;;8.89;95.11;100413.57;2056053;84;21596;-77
2022/10/23 02:52:29;;;;;;;23.83;17.45;;;;;;;8.88;94.98;100415.06;2138232;82;21093;-77
2022/10/23 02:56:03;;;;;;;26.45;18.12;;;;;;;8.84;94.88;100417.18;2133053;82;21480;-78
2022/10/23 02:59:31;;;;;;;24.92;15.83;;;;;;;8.79;94.63;100417.28;2137526;82;21136;-78
2022/10/23 03:02:38;;;;;;;25.00;16.10;;;;;;;8.76;94.71;100425.02;2135505;82;21644;-77
2022/10/23 03:05:43;;;;;;;27.95;17.35;;;;;;;8.71;94.65;100421.48;2131752;82;21024;-77
2022/10/23 03:09:01;;;;;;;24.37;16.35;;;;;;;8.69;94.57;100431.86;2137956;82;21002;-78
2022/10/23 03:12:03;;;;;;;24.20;15.05;;;;;;;8.66;94.59;100429.52;2143412;82;21473;-79
2022/10/23 03:15:08;;;;;;;24.45;15.40;;;;;;;8.63;94.52;100433.28;2135460;82;21144;-77
2022/10/23 03:18:09;;;;;;;26.17;15.32;;;;;;;8.58;94.51;100423.63;2140819;82;21063;-84
2022/10/23 03:21:14;;;;;;;28.70;15.55;;;;;;;8.53;94.33;100428.52;2143362;82;21161;-79
2022/10/23 03:24:15;;;;;;;22.02;14.80;;;;;;;8.50;94.46;100429.67;2137482;82;21100;-85
2022/10/23 03:27:17;;;;;;;19.65;13.70;;;;;;;8.48;94.38;100422.36;2145825;82;21084;-77
2022/10/23 03:30:19;;;;;;;24.30;14.90;;;;;;;8.45;94.37;100423.98;2140038;82;21040;-77
2022/10/23 03:33:22;;;;;;;22.05;14.60;;;;;;;8.41;94.36;100429.20;2142848;82;21080;-78
2022/10/23 03:36:23;;;;;;;20.92;15.03;;;;;;;8.40;94.31;100432.00;2138397;82;21587;-77
2022/10/23 03:39:24;;;;;;;22.07;14.63;;;;;;;8.37;94.32;100430.94;2139204;82;21077;-77
2022/10/23 03:42:25;;;;;;;25.50;15.43;;;;;;;8.33;94.32;100436.16;2145858;82;21473;-77
2022/10/23 03:45:26;;;;;;;23.98;15.83;;;;;;;8.27;94.22;100429.63;2137896;82;21631;-77
2022/10/23 03:48:27;;;;;;;24.77;15.55;;;;;;;8.24;94.23;100436.53;2141638;82;21100;-77
2022/10/23 03:51:31;;;;;;;27.22;18.87;;;;;;;8.21;94.25;100435.01;2135055;82;21168;-76
2022/10/23 03:54:32;;;;;;;29.10;16.90;;;;;;;8.21;94.42;100438.14;2136782;82;20993;-76
2022/10/23 03:57:37;;;;;;;27.42;16.73;;;;;;;8.21;94.64;100436.82;2132493;82;21005;-80
2022/10/23 04:00:38;;;;;;;29.20;18.50;;;;;;;8.22;94.74;100443.30;2122577;82;21001;-76
2022/10/23 04:03:39;;;;;;;26.65;16.62;;;;;;;8.25;94.96;100435.55;2137268;82;20977;-76
2022/10/23 04:06:40;;;;;;;28.90;16.95;;;;;;;8.26;94.85;100437.23;2128577;82;21037;-77
2022/10/23 04:09:42;;;;;;;30.37;17.17;;;;;;;8.25;94.80;100432.90;2136386;82;21184;-83
2022/10/23 04:12:45;;;;;;;29.82;18.37;;;;;;;8.25;94.84;100438.19;2131834;82;21513;-76
2022/10/23 04:15:53;;;;;;;33.00;18.80;;;;;;;8.26;94.94;100427.98;2133130;82;21097;-80
2022/10/23 04:18:54;;;;;;;35.25;21.05;;;;;;;8.27;94.98;100430.95;2134626;82;21021;-77
2022/10/23 04:21:57;;;;;;;35.80;21.70;;;;;;;8.28;95.12;100427.36;2128342;82;21548;-77
2022/10/23 04:25:01;;;;;;;40.35;23.18;;;;;;;8.31;95.28;100429.70;2125312;82;21045;-78
2022/10/23 04:28:05;;;;;;;39.03;20.48;;;;;;;8.33;95.48;100422.44;2127922;82;21081;-78
2022/10/23 04:31:07;;;;;;;43.08;21.40;;;;;;;8.34;95.67;100416.20;2125674;82;21540;-76
2022/10/23 04:34:12;;;;;;;35.98;19.45;;;;;;;8.35;95.71;100412.56;2131180;82;21077;-78
2022/10/23 04:37:19;;;;;;;29.80;17.48;;;;;;;8.35;95.67;100413.88;2136101;82;21081;-76
2022/10/23 04:40:20;;;;;;;31.57;18.90;;;;;;;8.35;95.52;100421.81;2130059;82;21727;-76
2022/10/23 04:43:21;;;;;;;28.07;18.90;;;;;;;8.30;95.12;100412.98;2126002;82;21065;-77
2022/10/23 04:46:23;;;;;;;29.95;18.67;;;;;;;8.26;95.10;100418.72;2127644;82;21478;-77
2022/10/23 04:49:24;;;;;;;28.52;17.52;;;;;;;8.21;95.01;100416.50;2127873;82;21092;-76
2022/10/23 04:52:44;;;;;;;25.92;17.60;;;;;;;8.17;95.08;100420.42;2124508;82;21506;-87
2022/10/23 04:55:52;;;;;;;24.20;15.48;;;;;;;8.11;94.98;100418.83;2117751;82;21100;-76
2022/10/23 04:59:10;;;;;;;25.55;16.37;;;;;;;8.04;94.76;100424.69;2133614;82;21104;-82
2022/10/23 05:02:13;;;;;;;24.12;14.47;;;;;;;8.00;94.51;100431.74;2134676;82;20986;-78
2022/10/23 05:05:22;;;;;;;22.48;15.38;;;;;;;7.95;94.35;100433.48;2131042;82;21109;-85
2022/10/23 05:08:25;;;;;;;26.07;16.90;;;;;;;7.84;93.98;100430.99;2132675;82;21164;-77
2022/10/23 05:11:28;;;;;;;34.45;15.85;;;;;;;7.71;93.89;100434.41;2132898;82;21065;-77
2022/10/23 05:14:29;;;;;;;20.95;14.53;;;;;;;7.60;94.06;100436.24;2132780;82;21133;-76
2022/10/23 05:17:34;;;;;;;179.95;14.25;;;;;;;7.56;94.17;100434.83;2130289;82;21098;-76
2022/10/23 05:20:37;;;;;;;140.07;10.80;;;;;;;7.51;94.23;100439.69;2133960;82;21045;-77
2022/10/23 05:23:43;;;;;;;91.15;9.00;;;;;;;7.48;94.33;100454.98;2129769;82;21556;-77
2022/10/23 05:26:44;;;;;;;160.95;7.25;;;;;;;7.46;94.53;100457.78;2129890;82;21085;-76
2022/10/23 05:29:47;;;;;;;32.15;7.95;;;;;;;7.39;94.13;100456.16;2106605;82;21034;-76
2022/10/23 05:32:50;;;;;;;94.67;8.25;;;;;;;7.35;94.12;100461.38;2134822;82;20974;-84
2022/10/23 05:35:53;;;;;;;104.00;8.73;;;;;;;7.30;94.09;100458.80;2134639;82;21501;-77
2022/10/23 05:38:57;;;;;;;27.15;6.50;;;;;;;7.30;94.11;100461.45;2129487;82;21066;-77
2022/10/23 05:41:59;;;;;;;99.58;9.45;;;;;;;7.27;93.92;100463.05;2125402;82;20994;-86
2022/10/23 05:45:02;;;;;;;66.35;9.85;;;;;;;7.25;94.01;100461.02;2121124;82;21041;-76
2022/10/23 05:48:20;;;;;;;30.60;11.40;;;;;;;7.24;94.05;100461.51;2134729;82;21045;-84
2022/10/23 05:51:22;;;;;;;18.80;10.10;;;;;;;7.22;94.08;100466.57;2130281;82;21148;-76
2022/10/23 05:54:28;;;;;;;17.70;9.98;;;;;;;7.23;94.32;100465.09;2128955;82;21442;-75
2022/10/23 05:57:34;;;;;;;13.18;9.68;;;;;;;7.28;94.38;100472.13;2113820;82;21017;-76
2022/10/23 06:00:37;;;;;;;14.95;11.12;;;;;;;7.30;94.17;100466.23;2126007;82;21441;-76
2022/10/23 06:03:40;;;;;;;11.33;9.40;;;;;;;7.33;94.09;100459.36;2124585;82;21659;-77
2022/10/23 06:06:47;;;;;;;12.85;8.25;;;;;;;7.37;94.06;100466.51;2134541;82;21048;-77
2022/10/23 06:09:53;;;;;;;11.22;8.80;;;;;;;7.45;94.22;100467.98;2134097;82;21090;-76
2022/10/23 06:12:53;;;;;;;15.20;10.48;;;;;;;7.53;94.30;100469.45;2134909;82;21073;-77
2022/10/23 06:15:54;;;;;;;16.00;11.55;;;;;;;7.60;94.29;100467.94;2137736;82;21153;-77
2022/10/23 06:18:58;;;;;;;16.40;10.85;;;;;;;7.67;94.31;100471.33;2130302;82;21021;-76
2022/10/23 06:22:04;;;;;;;16.65;11.40;;;;;;;7.74;94.38;100467.14;2130075;82;21063;-77
2022/10/23 06:25:08;;;;;;;15.48;11.38;;;;;;;7.81;94.33;100463.81;2137752;82;21397;-76
2022/10/23 06:28:09;;;;;;;14.43;10.20;;;;;;;7.89;94.29;100465.75;2131270;82;21045;-83
2022/10/23 06:31:17;;;;;;;14.65;10.40;;;;;;;7.94;94.19;100465.31;2132668;82;21022;-76
2022/10/23 06:34:23;;;;;;;19.55;12.50;;;;;;;8.05;94.38;100469.98;2128291;82;21580;-78
2022/10/23 06:37:24;;;;;;;16.07;11.15;;;;;;;8.15;94.42;100466.48;2129229;82;21024;-83
2022/10/23 06:40:27;;;;;;;18.82;9.50;;;;;;;8.22;94.49;100478.99;2133463;82;21082;-73
2022/10/23 06:43:33;;;;;;;16.35;10.63;;;;;;;8.30;94.44;100483.54;2137638;82;21061;-75
2022/10/23 06:46:36;;;;;;;14.70;10.80;;;;;;;8.40;94.54;100477.78;2112962;82;21083;-76
2022/10/23 06:49:39;;;;;;;19.55;11.30;;;;;;;8.55;94.75;100481.28;2125053;82;21541;-77
2022/10/23 06:52:40;;;;;;;19.75;14.00;;;;;;;8.81;95.17;100484.92;2140336;82;22332;-72
2022/10/23 06:55:42;;;;;;;24.27;15.05;;;;;;;9.06;95.32;100483.90;2135682;82;21039;-73
2022/10/23 06:58:43;;;;;;;29.20;17.10;;;;;;;9.24;95.03;100486.10;2138661;82;21091;-78
2022/10/23 07:01:46;;;;;;;34.75;18.12;;;;;;;9.37;94.82;100490.52;2113552;82;21524;-74
2022/10/23 07:04:48;;;;;;;26.68;16.07;;;;;;;9.55;94.92;100495.03;2135438;82;21524;-73
2022/10/23 07:07:51;;;;;;;26.60;18.20;;;;;;;10.22;95.73;100489.62;2137261;82;21006;-75
2022/10/23 07:10:55;;;;;;;29.23;18.45;;;;;;;10.22;95.73;100489.62;2138738;82;21006;-78
2022/10/23 07:13:58;;;;;;;28.12;18.37;;;;;;;10.41;94.99;100496.55;2136158;82;21500;-76
2022/10/23 07:17:00;;;;;;;27.87;17.35;;;;;;;10.68;95.21;100495.55;2137424;82;21132;-76
2022/10/23 07:20:02;;;;;;;28.42;17.92;;;;;;;10.93;94.95;100497.00;2139839;82;21043;-78
2022/10/23 07:23:03;;;;;;;26.52;19.02;;;;;;;11.18;94.79;100496.59;2135497;82;20976;-76
2022/10/23 07:26:16;;;;;;;23.80;17.75;;;;;;;11.39;94.54;100492.16;2136160;82;21075;-73
2022/10/23 07:29:17;;;;;;;;;;;;;;;11.70;94.36;100488.37;2141945;82;21499;-78
2022/10/23 07:32:18;;;;;;;;;;;;;;;12.11;94.60;100485.26;2110725;82;20186;-75
2022/10/23 07:35:40;;;;;;;29.20;18.92;;;;;;;12.44;93.83;100482.52;2140882;82;20131;-77
2022/10/23 07:38:44;;;;;;;26.00;18.00;;;;;;;12.69;93.31;100480.63;2136824;82;21560;-76
2022/10/23 07:41:46;;;;;;;26.35;18.37;;;;;;;12.78;92.07;100484.95;2107804;82;21516;-77
2022/10/23 07:44:47;;;;;;;23.83;17.52;;;;;;;12.95;91.90;100480.38;2140436;82;21501;-71
2022/10/23 07:47:51;;;;;;;21.07;16.02;;;;;;;13.15;91.49;100477.27;2139116;82;21120;-76
2022/10/23 07:51:02;;;;;;;23.98;15.58;;;;;;;13.28;90.70;100478.89;2141928;82;21084;-75
2022/10/23 07:54:05;;;;;;;;;;;;;;;13.74;91.68;100472.27;2137478;82;21010;-76
2022/10/23 07:57:24;;;;;;;19.30;14.90;;;;;;;14.11;89.55;100466.11;2140006;82;20130;-77
2022/10/23 08:00:30;;;;;;;21.80;15.55;;;;;;;14.11;89.10;100470.11;2145916;82;21014;-77
2022/10/23 08:03:33;;;;;;;21.62;15.60;;;;;;;14.13;88.66;100472.58;2143697;82;21076;-76
2022/10/23 08:06:35;;;;;;;19.98;15.05;;;;;;;14.18;88.28;100479.55;2133114;82;22522;-76
2022/10/23 08:09:36;;;;;;;19.65;14.00;;;;;;;14.29;88.58;100476.94;2148804;82;21065;-76
2022/10/23 08:12:38;;;;;;;22.62;14.38;;;;;;;14.25;86.93;100472.48;2143834;82;22242;-76
2022/10/23 08:15:45;;;;;;;19.55;14.73;;;;;;;14.10;87.11;100472.95;2138673;82;21029;-76
2022/10/23 08:18:48;;;;;;;15.40;13.32;;;;;;;14.11;87.43;100475.96;2136094;82;21072;-77
2022/10/23 08:21:53;;;;;;;21.10;13.83;;;;;;;14.08;86.88;100473.14;2135964;82;21032;-76
2022/10/23 08:24:54;;;;;;;17.85;13.48;;;;;;;14.06;87.02;100471.66;2145529;82;21054;-77
2022/10/23 08:27:59;;;;;;;22.25;14.30;;;;;;;14.16;87.35;100478.06;2137785;82;21085;-76
2022/10/23 08:31:18;;;;;;;22.90;14.75;;;;;;;14.27;87.12;100482.45;2144586;82;21018;-76
2022/10/23 08:34:32;;;;;;;19.98;15.40;;;;;;;14.57;87.71;100479.85;2142754;82;21042;-78
2022/10/23 08:37:36;;;;;;;20.32;13.98;;;;;;;14.96;87.43;100486.74;2114555;82;21064;-76
2022/10/23 08:40:45;;;;;;;18.05;13.30;;;;;;;15.10;85.46;100491.23;2112184;81;21092;-74
2022/10/23 08:43:58;;;;;;;19.35;14.43;;;;;;;15.31;86.08;100485.09;2107003;82;21108;-77
2022/10/23 08:47:18;;;;;;;19.37;13.78;;;;;;;15.71;85.62;100488.72;2132797;82;21574;-76
2022/10/23 08:50:43;;;;;;;15.13;11.70;;;;;;;15.88;84.73;100486.95;2139021;81;21096;-79
2022/10/23 08:54:06;;;;;;;16.15;11.53;;;;;;;16.27;83.87;100483.42;2136241;82;21085;-72
2022/10/23 08:57:15;;;;;;;16.32;11.45;;;;;;;16.41;83.23;100489.19;2134418;82;21516;-77
2022/10/23 09:00:26;;;;;;;16.35;11.33;;;;;;;16.58;83.74;100483.86;2131488;82;21027;-71
2022/10/23 09:03:27;;;;;;;15.32;10.38;;;;;;;16.92;83.69;100486.72;2131406;82;21045;-72
2022/10/23 09:06:46;;;;;;;13.25;9.48;;;;;;;17.16;83.08;100493.43;2130506;82;21059;-72
2022/10/23 09:10:12;;;;;;;13.20;9.08;;;;;;;17.32;82.36;100493.59;2130504;82;21136;-73
2022/10/23 09:14:08;;;;;;;9.50;8.18;;;;;;;17.52;82.17;100493.12;2124885;82;21096;-74
2022/10/23 09:17:35;;;;;;;11.83;7.53;;;;;;;17.73;81.88;100494.80;2129543;82;21096;-70
2022/10/23 09:20:35;;;;;;;12.33;8.03;;;;;;;17.94;79.56;100499.73;2125511;82;21030;-71
2022/10/23 09:23:37;;;;;;;9.40;7.15;;;;;;;18.02;80.05;100498.16;2139971;82;21013;-68
2022/10/23 09:26:41;;;;;;;10.32;7.47;;;;;;;18.25;79.42;100497.23;2131705;82;21018;-71
2022/10/23 09:29:49;;;;;;;7.90;6.92;;;;;;;18.58;79.53;100499.03;2132648;82;20994;-70
2022/10/23 09:32:51;;;;;;;8.98;7.22;;;;;;;18.80;78.43;100491.05;2130761;81;20979;-71
2022/10/23 09:36:06;;;;;;;9.83;6.62;;;;;;;18.98;77.82;100498.98;2129610;82;21041;-70
2022/10/23 09:39:12;;;;;;;8.13;6.92;;;;;;;19.11;75.63;100490.83;2126870;82;21009;-71
2022/10/23 09:42:24;;;;;;;11.30;7.15;;;;;;;19.27;76.83;100492.22;2127239;82;21017;-70
2022/10/23 09:45:31;;;;;;;10.65;8.18;;;;;;;19.52;76.34;100492.81;2127390;82;21030;-70
2022/10/23 09:48:35;;;;;;;13.08;9.38;;;;;;;19.72;74.62;100488.15;2126853;82;22355;-69
2022/10/23 09:52:03;;;;;;;9.45;6.05;;;;;;;19.64;74.65;100488.37;2121520;82;21317;-69
2022/10/23 09:55:24;;;;;;;9.68;6.45;;;;;;;19.70;74.22;100489.70;2114350;84;21849;-76
2022/10/23 09:58:39;;;;;;;7.97;5.30;;;;;;;19.90;74.15;100483.34;2110685;82;21088;-69
2022/10/23 10:01:54;;;;;;;7.60;4.83;;;;;;;20.14;73.44;100481.18;2080306;84;21306;-70
2022/10/23 10:05:31;;;;;;;10.45;6.12;;;;;;;20.08;70.66;100486.11;2099588;82;21714;-69
2022/10/23 10:08:50;;;;;;;7.97;5.45;;;;;;;19.93;69.13;100477.52;2108163;84;21108;-76
2022/10/23 10:11:58;;;;;;;5.47;4.65;;;;;;;19.83;70.14;100475.86;2108636;84;21579;-68
2022/10/23 10:15:19;;;;;;;8.73;5.33;;;;;;;19.64;70.37;100466.84;2103192;84;21132;-74
2022/10/23 10:18:26;;;;;;;7.05;4.55;;;;;;;19.77;70.69;100461.93;2106138;82;21041;-70
2022/10/23 10:21:47;;;;;;;9.88;4.87;;;;;;;19.92;70.37;100462.41;2110577;82;21831;-69
2022/10/23 10:25:02;;;;;;;7.42;3.55;;;;;;;19.89;70.06;100460.16;2104927;84;20998;-69
2022/10/23 10:28:24;;;;;;;8.25;4.28;;;;;;;19.91;69.95;100457.55;2098864;82;21499;-68
2022/10/23 10:31:52;;;;;;;8.05;3.20;;;;;;;20.13;68.88;100456.65;2111907;84;21061;-68
2022/10/23 10:35:04;;;;;;;6.95;3.90;;;;;;;20.13;68.58;100462.03;2104297;82;21109;-69
2022/10/23 10:38:29;;;;;;;8.48;3.80;;;;;;;20.15;68.50;100459.92;2101579;84;21107;-69
2022/10/23 10:41:53;;;;;;;6.30;3.75;;;;;;;20.27;68.07;100447.92;2078846;82;21447;-70
2022/10/23 10:45:22;;;;;;;4.80;3.08;;;;;;;20.37;68.19;100440.66;2109043;82;21021;-69
2022/10/23 10:48:47;;;;;;;5.15;3.00;;;;;;;20.31;66.40;100442.37;2101222;84;21536;-69
2022/10/23 10:52:17;;;;;;;6.85;3.40;;;;;;;19.82;65.98;100436.49;2113982;82;21104;-72
2022/10/23 10:55:38;;;;;;;6.72;3.17;;;;;;;19.44;66.30;100432.00;2121346;82;21631;-68
2022/10/23 10:58:48;;;;;;;5.30;3.42;;;;;;;19.37;66.66;100423.13;2113981;82;21065;-70
2022/10/23 11:01:55;;;;;;;6.80;3.00;;;;;;;19.32;67.14;100428.36;2116021;82;21088;-69
2022/10/23 11:05:10;;;;;;;5.80;2.95;;;;;;;19.37;67.59;100425.33;2120483;82;21104;-69
2022/10/23 11:08:26;;;;;;;5.83;2.92;;;;;;;19.43;67.74;100423.63;2115646;82;21592;-69
2022/10/23 11:11:42;;;;;;;3.92;2.65;;;;;;;19.49;67.67;100417.38;2118434;82;21029;-70
2022/10/23 11:14:44;;;;;;;4.65;2.50;;;;;;;19.56;67.13;100422.17;2117318;82;21059;-71
2022/10/23 11:17:56;;;;;;;6.40;3.08;;;;;;;19.49;67.05;100410.12;2119278;82;21488;-71
2022/10/23 11:21:15;;;;;;;7.50;2.50;;;;;;;19.57;67.31;100403.65;2118808;82;21085;-69
2022/10/23 11:25:00;;;;;;;7.40;3.25;;;;;;;19.74;67.58;100401.77;2122957;82;20987;-69
2022/10/23 11:28:12;;;;;;;8.20;2.52;;;;;;;20.00;66.50;100394.81;2091065;82;21099;-70
2022/10/23 11:31:32;;;;;;;4.12;2.60;;;;;;;20.21;66.02;100389.52;2118950;82;21045;-70
2022/10/23 11:34:53;;;;;;;6.28;2.50;;;;;;;20.14;65.90;100387.42;2114999;82;21100;-69
2022/10/23 11:38:18;;;;;;;4.37;2.30;;;;;;;20.13;65.86;100387.95;2117554;82;21143;-69
2022/10/23 11:41:26;;;;;;;6.72;2.92;;;;;;;20.35;65.77;100392.89;2104370;82;21480;-68
2022/10/23 11:44:41;;;;;;;4.33;2.90;;;;;;;20.55;64.72;100398.93;2118873;82;21124;-68
2022/10/23 11:47:43;;;;;;;5.92;3.15;;;;;;;20.72;64.11;100389.70;2116204;82;20982;-70
2022/10/23 11:50:49;;;;;;;4.22;2.85;;;;;;;20.73;64.25;100395.91;2121022;82;20983;-68
2022/10/23 11:53:55;;;;;;;6.10;3.10;;;;;;;20.58;62.03;100393.08;2098734;82;21062;-67
2022/10/23 11:57:16;;;;;;;6.30;3.00;;;;;;;20.30;62.75;100386.84;2101929;84;21419;-68
2022/10/23 12:00:22;;;;;;;6.20;3.40;;;;;;;20.20;63.17;100385.18;2102344;84;21017;-69
2022/10/23 12:03:40;;;;;;;6.20;3.50;;;;;;;20.20;63.43;100377.62;2098001;84;21057;-69
2022/10/23 12:07:04;;;;;;;4.65;3.45;;;;;;;20.30;63.04;100374.72;2084793;83;21077;-67
2022/10/23 12:10:25;;;;;;;3.85;3.20;;;;;;;20.27;63.32;100368.94;2100729;84;21098;-68
2022/10/23 12:13:44;;;;;;;6.92;3.40;;;;;;;20.27;63.41;100356.81;2088775;83;21046;-70
2022/10/23 12:16:54;;;;;;;3.95;3.35;;;;;;;20.24;63.36;100357.27;2098143;84;21125;-74
2022/10/23 12:20:18;;;;;;;4.28;3.33;;;;;;;20.08;62.85;100351.96;2077896;84;21045;-69
2022/10/23 12:24:00;;;;;;;6.10;3.20;;;;;;;19.88;62.90;100339.52;2101203;84;21015;-72
2022/10/23 12:27:26;;;;;;;6.35;3.27;;;;;;;19.79;62.85;100342.70;2099510;83;21663;-69
2022/10/23 12:30:56;;;;;;;5.15;3.58;;;;;;;19.75;63.46;100348.25;2098658;82;21069;-72
2022/10/23 12:34:42;;;;;;;5.62;3.20;;;;;;;19.75;63.17;100344.20;2088173;84;21006;-71
2022/10/23 12:38:06;;;;;;;4.85;2.92;;;;;;;19.65;63.13;100339.28;2105906;84;21056;-73
2022/10/23 12:41:21;;;;;;;4.15;3.25;;;;;;;19.62;63.30;100331.13;2097425;84;21076;-71
2022/10/23 12:44:24;;;;;;;4.03;2.90;;;;;;;19.62;63.49;100324.39;2102832;84;21587;-71
2022/10/23 12:47:26;;;;;;;3.10;2.80;;;;;;;19.57;62.81;100314.84;2101230;84;20999;-72
2022/10/23 12:50:31;;;;;;;5.92;2.72;;;;;;;19.48;62.83;100305.37;2098316;84;21061;-74
2022/10/23 12:53:32;;;;;;;4.87;3.40;;;;;;;19.38;62.88;100305.06;2125722;82;21076;-73
2022/10/23 12:56:38;;;;;;;4.08;3.52;;;;;;;19.33;63.08;100308.94;2139023;82;21022;-72
2022/10/23 12:59:41;;;;;;;10.70;4.58;;;;;;;19.31;62.88;100297.56;2143170;82;21513;-72
2022/10/23 13:02:42;;;;;;;4.28;3.60;;;;;;;19.32;63.08;100292.50;2136190;82;21108;-72
2022/10/23 13:05:44;;;;;;;6.30;3.87;;;;;;;19.35;62.98;100288.84;2139734;82;21049;-72
2022/10/23 13:08:47;;;;;;;4.67;3.70;;;;;;;19.35;62.21;100289.37;2145824;81;21048;-72
2022/10/23 13:11:51;;;;;;;4.97;3.85;;;;;;;19.33;62.66;100286.06;2137533;82;21086;-72
2022/10/23 13:15:09;;;;;;;7.58;4.37;;;;;;;19.28;62.57;100280.52;2136625;82;21045;-73
2022/10/23 13:18:14;;;;;;;5.85;3.45;;;;;;;19.20;62.46;100278.91;2138554;82;21553;-72
2022/10/23 13:21:26;;;;;;;5.10;3.67;;;;;;;19.16;62.19;100272.34;2140288;82;21084;-72
2022/10/23 13:24:30;;;;;;;7.08;3.65;;;;;;;19.10;62.58;100277.26;2139097;82;21017;-72
2022/10/23 13:27:37;;;;;;;7.42;3.75;;;;;;;19.03;62.01;100278.63;2143433;82;21057;-72
2022/10/23 13:30:41;;;;;;;5.12;3.60;;;;;;;19.02;63.01;100285.06;2137605;82;22325;-72
2022/10/23 13:33:52;;;;;;;4.05;2.90;;;;;;;19.02;62.53;100282.38;2136353;81;21604;-73
2022/10/23 13:37:04;;;;;;;5.00;3.58;;;;;;;18.96;62.81;100277.87;2139947;82;21452;-75
2022/10/23 13:40:22;;;;;;;5.67;4.35;;;;;;;18.94;62.69;100282.64;2140234;82;21575;-75
2022/10/23 13:43:28;;;;;;;6.33;4.50;;;;;;;18.88;63.19;100276.27;2143386;82;21027;-74
2022/10/23 13:46:32;;;;;;;7.53;4.22;;;;;;;18.78;63.08;100279.45;2109099;82;21053;-75
2022/10/23 13:49:32;;;;;;;9.08;5.90;;;;;;;18.67;63.44;100269.35;2143173;82;21631;-74
2022/10/23 13:52:33;;;;;;;10.30;5.47;;;;;;;18.53;63.61;100270.47;2135941;82;21084;-77
2022/10/23 13:55:35;;;;;;;7.53;4.45;;;;;;;18.45;63.22;100273.41;2139534;82;21182;-75
2022/10/23 13:58:36;;;;;;;6.75;4.80;;;;;;;18.31;63.61;100276.67;2109407;82;20994;-75
2022/10/23 14:01:38;;;;;;;11.22;5.25;;;;;;;18.18;63.75;100266.80;2110997;81;21458;-76
2022/10/23 14:04:39;;;;;;;11.75;6.33;;;;;;;18.11;64.18;100264.14;2133891;82;21032;-75
2022/10/23 14:07:40;;;;;;;5.70;4.10;;;;;;;18.05;64.39;100267.69;2135794;82;21820;-75
2022/10/23 14:10:41;;;;;;;4.62;3.85;;;;;;;17.99;64.45;100272.56;2137155;82;21509;-74
2022/10/23 14:13:43;;;;;;;6.10;4.10;;;;;;;17.87;64.30;100271.03;2132001;82;21040;-75
2022/10/23 14:16:47;;;;;;;5.30;3.90;;;;;;;17.76;64.54;100267.62;2107277;82;21013;-75
2022/10/23 14:19:49;;;;;;;6.92;4.20;;;;;;;17.66;64.66;100272.61;2132025;82;21076;-75
2022/10/23 14:22:50;;;;;;;8.30;4.20;;;;;;;17.54;64.83;100279.14;2132535;82;21536;-75
2022/10/23 14:25:51;;;;;;;7.03;4.15;;;;;;;17.47;65.08;100273.77;2139960;82;21077;-76
2022/10/23 14:28:56;;;;;;;6.62;4.37;;;;;;;17.40;65.35;100266.25;2110956;82;21133;-74
2022/10/23 14:31:57;;;;;;;6.22;4.15;;;;;;;17.35;65.52;100263.88;2132920;82;21025;-77